Главная страница
METAR-TAF:

METAR-TAF

Аэропорты :

Эребру, Швеция

широта: 59-14N, долгота: 015-03E, высота над уровнем моря: 57 м

Текущие метеонаблюдения

Эта сводка был подготовлена 36 минут назад, в 09:20 UTC
Ветер 17 Узел от северный
Температура 5°C
Влажность 38%
Давление 1016 hPa
Видимость 10 км и более
небольшая облачность на высоте 4700 фута

METAR: ESOE 260920Z 01017KT 9999 FEW047 05/M08 Q1016

Время: 10:56 (09:56 UTC)

Прогноз

Эта сводка был подготовлена 1 час и 26 минут назад, в 08:30 UTC
Прогноз действительный с 26-го 09 UTC до 26-го 18 UTC
Ветер 14 Узел от северно-северо-западный
Видимость 10 км и более
Отдельные облака на высоте 4000 фута

TAF: ESOE 260830Z 2609/2618 34014KT 9999 SCT040

Метеонаблюдения и прогнозы для более 4000 аэропортов (сводки METAR и TAF).

Имеющиеся станции представлены на карте желтыми и красными точками.

Чтобы увидеть название станции, наведите на нее мышь.

Затем щелкните, чтобы увидеть метеонаблюдения и метеопрогнозы.

Управление картой: чтобы увеличить масштаб, щелкните зеленые кнопки с черным крестиком; чтобы уменьшить масштаб, щелкните зеленую кнопку с тире; для просмотра соседних карт щелкайте зеленые стрелки.


METAR-TAF: